Time;durP1;ratioP1;P1;durP2;ratioP2;P2;SDS_P1;SDS_P2;PMS_P1;PMS_P2;Temp;Humidity;BMP_temperature;BMP_pressure;BME280_temperature;BME280_humidity;BME280_pressure;Samples;Min_cycle;Max_cycle;Signal;HPM_P1;HPM_P2
2021/12/21 00:00:20;;;;;;;1.80;1.10;;;-0.80;99.90;;;;;;5269864;28;20028;-72
2021/12/21 00:02:53;;;;;;;2.00;1.25;;;-1.00;99.90;;;;;;5269771;28;20039;-72
2021/12/21 00:05:28;;;;;;;1.58;1.13;;;-1.00;99.90;;;;;;5269870;28;20570;-72
2021/12/21 00:08:03;;;;;;;1.38;0.80;;;-0.60;99.90;;;;;;5269907;28;20036;-72
2021/12/21 00:10:35;;;;;;;1.15;0.80;;;-1.20;99.90;;;;;;5269181;28;20061;-72
2021/12/21 00:21:35;;;;;;;1.70;1.00;;;-1.10;99.90;;;;;;5269506;28;20073;-71
2021/12/21 00:24:18;;;;;;;1.77;1.20;;;-1.00;99.90;;;;;;5269537;28;20028;-75
2021/12/21 00:26:49;;;;;;;2.13;1.10;;;-1.10;99.90;;;;;;5268897;28;20055;-72
2021/12/21 00:29:21;;;;;;;1.90;1.40;;;-1.30;99.90;;;;;;5269396;28;20059;-74
2021/12/21 00:31:51;;;;;;;1.65;1.08;;;-1.30;99.90;;;;;;5268135;28;20496;-72
2021/12/21 00:34:22;;;;;;;1.63;1.10;;;-1.40;99.90;;;;;;5269326;28;20033;-72
2021/12/21 00:36:53;;;;;;;1.98;1.20;;;-1.30;99.90;;;;;;5269286;28;20095;-72
2021/12/21 00:39:24;;;;;;;1.40;1.10;;;-1.50;99.90;;;;;;5269018;28;20038;-71
2021/12/21 00:41:55;;;;;;;3.10;1.65;;;-1.50;99.90;;;;;;5269109;28;20391;-72
2021/12/21 00:44:25;;;;;;;2.85;1.10;;;-1.50;99.90;;;;;;5269030;28;20356;-72
2021/12/21 00:46:56;;;;;;;2.25;1.50;;;-1.50;99.90;;;;;;5269124;28;20031;-72
2021/12/21 00:49:29;;;;;;;1.83;1.20;;;-1.20;99.90;;;;;;5269020;28;20072;-72
2021/12/21 00:52:00;;;;;;;2.75;1.40;;;-1.30;99.90;;;;;;5269128;28;20035;-72
2021/12/21 00:54:31;;;;;;;3.60;1.77;;;-1.50;99.90;;;;;;5268925;28;20016;-72
2021/12/21 00:57:04;;;;;;;4.97;2.40;;;-1.40;99.90;;;;;;5269030;28;20521;-72
2021/12/21 00:59:35;;;;;;;3.28;1.60;;;-1.60;99.90;;;;;;5268899;28;20024;-71
2021/12/21 01:02:06;;;;;;;4.55;1.88;;;-1.40;99.90;;;;;;5268834;28;20051;-72
2021/12/21 01:04:42;;;;;;;2.05;1.30;;;-1.60;99.90;;;;;;5268845;28;20463;-72
2021/12/21 01:12:25;;;;;;;2.58;1.42;;;-1.50;99.90;;;;;;5268581;28;20063;-72
2021/12/21 01:17:47;;;;;;;4.07;1.67;;;-1.90;99.90;;;;;;5268888;28;19907;-72
2021/12/21 01:26:12;;;;;;;2.72;1.60;;;-1.70;99.90;;;;;;5268792;28;20035;-72
2021/12/21 01:29:05;;;;;;;3.63;1.50;;;-1.30;99.90;;;;;;5268663;28;20024;-72
2021/12/21 01:31:52;;;;;;;2.97;1.70;;;-1.30;99.90;;;;;;5268619;28;20031;-72
2021/12/21 01:34:53;;;;;;;2.50;1.35;;;-1.40;99.90;;;;;;5268665;28;20032;-72
2021/12/21 01:37:47;;;;;;;4.43;1.88;;;-1.70;99.90;;;;;;5268762;28;20452;-73
2021/12/21 01:40:48;;;;;;;2.70;1.73;;;-1.60;99.90;;;;;;5272482;28;20471;-73
2021/12/21 01:43:27;;;;;;;3.70;1.45;;;-1.50;99.90;;;;;;5272598;28;20090;-73
2021/12/21 01:51:37;;;;;;;3.17;1.60;;;-1.80;99.90;;;;;;5272851;28;20042;-73
2021/12/21 01:54:08;;;;;;;2.70;1.30;;;-1.90;99.90;;;;;;5272479;28;20154;-73
2021/12/21 01:56:39;;;;;;;2.08;1.40;;;-1.80;99.90;;;;;;5272438;28;20489;-72
2021/12/21 01:59:10;;;;;;;1.98;1.30;;;-1.80;99.90;;;;;;5272252;28;20062;-73
2021/12/21 02:01:41;;;;;;;3.25;1.90;;;-2.00;99.90;;;;;;5272295;28;20036;-72
2021/12/21 02:04:15;;;;;;;2.75;1.50;;;-1.90;99.90;;;;;;5272127;28;20073;-73
2021/12/21 02:06:48;;;;;;;4.40;1.90;;;-1.90;99.90;;;;;;5270989;28;20023;-72
2021/12/21 02:09:22;;;;;;;2.60;1.30;;;-2.10;99.90;;;;;;5272052;28;20016;-73
2021/12/21 02:11:53;;;;;;;2.88;1.50;;;-2.10;99.90;;;;;;5271929;28;20082;-72
2021/12/21 02:14:24;;;;;;;2.97;1.95;;;-2.20;99.90;;;;;;5272045;28;20055;-72
2021/12/21 02:20:17;;;;;;;3.05;1.70;;;-2.10;99.90;;;;;;5272261;28;20476;-71
2021/12/21 02:22:57;;;;;;;2.67;1.70;;;-1.80;99.90;;;;;;5271928;28;20479;-71
2021/12/21 02:30:49;;;;;;;5.25;2.30;;;-2.10;99.90;;;;;;5271723;28;20016;-72
2021/12/21 02:33:21;;;;;;;3.30;1.63;;;-2.00;99.90;;;;;;5271694;28;20040;-73
2021/12/21 02:35:53;;;;;;;3.28;1.80;;;-2.20;99.90;;;;;;5271709;28;20025;-72
2021/12/21 02:38:26;;;;;;;4.80;2.42;;;-2.10;99.90;;;;;;5271533;28;20024;-72
2021/12/21 02:40:56;;;;;;;4.03;2.10;;;-1.80;99.90;;;;;;5271283;28;20032;-72
2021/12/21 02:43:28;;;;;;;4.65;2.00;;;-1.90;99.90;;;;;;5271407;28;20043;-78
2021/12/21 02:45:59;;;;;;;7.55;2.22;;;-1.70;99.90;;;;;;5271470;28;20437;-72
2021/12/21 02:48:29;;;;;;;4.05;2.22;;;-1.70;99.90;;;;;;5271401;28;20024;-72
2021/12/21 02:51:01;;;;;;;6.38;2.63;;;-1.80;99.90;;;;;;5270948;28;20032;-72
2021/12/21 02:53:32;;;;;;;3.90;2.05;;;-1.60;99.90;;;;;;5271279;28;20093;-72
2021/12/21 02:56:03;;;;;;;10.82;2.47;;;-2.20;99.90;;;;;;5271287;28;20024;-72
2021/12/21 02:58:34;;;;;;;3.95;2.20;;;-2.00;99.90;;;;;;5271197;28;20032;-72
2021/12/21 03:01:08;;;;;;;4.57;2.20;;;-1.80;99.90;;;;;;5270890;28;20535;-72
2021/12/21 03:03:39;;;;;;;4.60;2.33;;;-2.00;99.90;;;;;;5271061;28;20111;-71
2021/12/21 03:06:22;;;;;;;5.18;2.67;;;-2.00;99.90;;;;;;5271113;28;20344;-71
2021/12/21 03:08:57;;;;;;;6.03;2.83;;;-2.40;99.90;;;;;;5270980;28;20490;-72
2021/12/21 03:11:48;;;;;;;5.95;3.20;;;-2.00;99.90;;;;;;5270692;28;20148;-72
2021/12/21 03:14:19;;;;;;;5.05;2.65;;;-1.70;99.90;;;;;;5271103;28;20036;-72
2021/12/21 03:16:50;;;;;;;5.20;2.85;;;-1.90;99.90;;;;;;5270847;28;20050;-72
2021/12/21 03:19:21;;;;;;;8.52;3.33;;;-1.90;99.90;;;;;;5270693;28;20379;-72
2021/12/21 03:21:53;;;;;;;6.28;3.22;;;-2.00;99.90;;;;;;5270560;28;20097;-72
2021/12/21 03:24:24;;;;;;;6.22;3.28;;;-1.80;99.90;;;;;;5270560;28;20081;-72
2021/12/21 03:26:55;;;;;;;7.05;4.30;;;-1.80;99.90;;;;;;5270652;28;20467;-72
2021/12/21 03:29:27;;;;;;;5.43;2.90;;;-2.00;99.90;;;;;;5270544;28;20020;-73
2021/12/21 03:31:58;;;;;;;5.35;3.50;;;-2.10;99.90;;;;;;5270573;28;20028;-72
2021/12/21 03:34:29;;;;;;;6.20;3.53;;;-2.00;99.90;;;;;;5270468;28;20029;-72
2021/12/21 03:37:00;;;;;;;6.97;4.28;;;-1.90;99.90;;;;;;5270409;28;20039;-72
2021/12/21 03:39:31;;;;;;;9.05;4.25;;;-2.00;99.90;;;;;;5270112;28;20028;-72
2021/12/21 03:42:03;;;;;;;7.53;4.32;;;-1.70;99.90;;;;;;5270289;28;20032;-72
2021/12/21 03:44:34;;;;;;;9.80;3.95;;;-2.00;99.90;;;;;;5270208;28;20486;-72
2021/12/21 03:47:08;;;;;;;5.40;3.33;;;-1.80;99.90;;;;;;5270249;28;20024;-72
2021/12/21 03:50:04;;;;;;;5.22;3.60;;;-1.90;99.90;;;;;;5270035;28;20028;-73
2021/12/21 03:52:32;;;;;;;7.03;4.53;;;-2.10;99.90;;;;;;5269753;28;20028;-73
2021/12/21 03:55:03;;;;;;;7.55;4.43;;;-1.90;99.90;;;;;;5270060;28;20028;-72
2021/12/21 03:57:34;;;;;;;7.40;4.47;;;-1.90;99.90;;;;;;5270059;28;20020;-77
2021/12/21 04:00:09;;;;;;;6.55;4.47;;;-1.50;99.90;;;;;;5269890;28;20028;-73
2021/12/21 04:02:40;;;;;;;7.95;4.60;;;-1.80;99.90;;;;;;5268755;28;20124;-73
2021/12/21 04:05:11;;;;;;;6.93;3.60;;;-1.30;99.90;;;;;;5269832;28;20028;-72
2021/12/21 04:07:42;;;;;;;6.32;3.88;;;-1.40;99.90;;;;;;5269870;28;20020;-73
2021/12/21 04:10:13;;;;;;;6.80;3.92;;;-1.40;99.90;;;;;;5267999;28;20032;-75
2021/12/21 04:12:44;;;;;;;10.60;4.43;;;-1.50;99.90;;;;;;5269768;28;20042;-72
2021/12/21 04:15:16;;;;;;;6.95;4.30;;;-1.40;99.90;;;;;;5269581;28;20020;-72
2021/12/21 04:17:47;;;;;;;7.57;3.80;;;-1.10;99.90;;;;;;5269694;28;20027;-72
2021/12/21 04:20:18;;;;;;;7.45;3.22;;;-1.60;99.90;;;;;;5269487;28;20479;-72
2021/12/21 04:22:49;;;;;;;5.93;3.90;;;-1.20;99.90;;;;;;5269398;28;20543;-72
2021/12/21 04:25:20;;;;;;;7.25;3.33;;;-1.60;99.90;;;;;;5269525;28;20039;-72
2021/12/21 04:27:51;;;;;;;10.23;4.30;;;-1.90;99.90;;;;;;5269477;28;20020;-73
2021/12/21 04:30:22;;;;;;;6.93;3.63;;;-1.90;99.90;;;;;;5269388;28;20047;-72
2021/12/21 04:32:52;;;;;;;6.30;3.75;;;-2.20;99.90;;;;;;5269395;28;20038;-72
2021/12/21 04:35:24;;;;;;;8.77;4.20;;;-2.00;99.90;;;;;;5269300;28;20108;-72
2021/12/21 04:37:59;;;;;;;7.13;4.03;;;-1.90;99.90;;;;;;5269230;28;20055;-72
2021/12/21 04:40:40;;;;;;;7.38;4.25;;;-2.10;99.90;;;;;;5268937;28;20024;-72
2021/12/21 04:43:11;;;;;;;7.80;4.03;;;-1.90;99.90;;;;;;5269083;28;20126;-72
2021/12/21 04:45:42;;;;;;;10.60;4.53;;;-1.80;99.90;;;;;;5269273;28;20474;-72
2021/12/21 04:48:13;;;;;;;5.85;3.88;;;-1.80;99.90;;;;;;5269062;28;20111;-72
2021/12/21 04:50:45;;;;;;;5.90;3.88;;;-1.60;99.90;;;;;;5268990;28;20020;-72
2021/12/21 04:53:17;;;;;;;6.88;4.05;;;-2.00;99.90;;;;;;5268996;28;20032;-74
2021/12/21 04:55:48;;;;;;;7.45;4.97;;;-1.60;99.90;;;;;;5269047;28;20085;-73
2021/12/21 04:58:19;;;;;;;6.30;4.03;;;-1.40;99.90;;;;;;5269074;28;20470;-73
2021/12/21 05:00:50;;;;;;;6.38;3.85;;;-1.70;99.90;;;;;;5268853;28;20023;-73
2021/12/21 05:03:21;;;;;;;6.55;4.22;;;-1.80;99.90;;;;;;5268852;28;20474;-73
2021/12/21 05:05:53;;;;;;;6.72;4.25;;;-1.60;99.90;;;;;;5268960;28;20093;-73
2021/12/21 05:08:27;;;;;;;10.63;4.28;;;-1.80;99.90;;;;;;5268803;28;20024;-73
2021/12/21 05:11:02;;;;;;;9.07;4.32;;;-1.80;99.90;;;;;;5268457;28;20439;-73
2021/12/21 05:13:36;;;;;;;9.20;4.00;;;-2.20;99.90;;;;;;5268545;28;20039;-73
2021/12/21 05:16:08;;;;;;;6.40;4.25;;;-1.80;99.90;;;;;;5268785;28;20017;-73
2021/12/21 05:18:38;;;;;;;6.00;3.85;;;-1.70;99.90;;;;;;5268827;28;20429;-73
2021/12/21 05:21:09;;;;;;;9.40;4.38;;;-1.70;99.90;;;;;;5268534;28;20028;-73
2021/12/21 05:23:40;;;;;;;8.68;4.93;;;-1.70;99.90;;;;;;5268574;28;20423;-74
2021/12/21 05:26:11;;;;;;;8.93;3.95;;;-1.80;99.90;;;;;;5268631;28;20016;-73
2021/12/21 05:28:42;;;;;;;7.43;4.63;;;-1.80;99.90;;;;;;5268629;28;20070;-73
2021/12/21 05:31:13;;;;;;;6.30;4.18;;;-1.60;99.90;;;;;;5268682;28;20428;-73
2021/12/21 05:33:45;;;;;;;7.40;4.13;;;-1.80;99.90;;;;;;5268571;28;20099;-73
2021/12/21 05:36:16;;;;;;;6.95;4.22;;;-2.10;99.90;;;;;;5268693;28;20016;-73
2021/12/21 05:38:51;;;;;;;7.60;4.55;;;-1.70;99.90;;;;;;5268425;28;20024;-73
2021/12/21 05:41:29;;;;;;;8.23;4.53;;;-2.10;99.90;;;;;;5268360;28;20177;-77
2021/12/21 05:44:00;;;;;;;7.93;4.65;;;-2.20;99.90;;;;;;5268426;28;20479;-73
2021/12/21 05:46:31;;;;;;;7.45;4.95;;;-2.20;99.90;;;;;;5268488;28;20016;-73
2021/12/21 05:49:02;;;;;;;9.25;4.63;;;-1.90;99.90;;;;;;5268363;28;20028;-73
2021/12/21 05:51:33;;;;;;;8.63;5.28;;;-1.90;99.90;;;;;;5268367;28;20036;-72
2021/12/21 05:54:04;;;;;;;9.52;4.43;;;-2.00;99.90;;;;;;5268462;28;20031;-73
2021/12/21 05:56:36;;;;;;;10.50;5.47;;;-2.10;99.90;;;;;;5268522;28;20355;-73
2021/12/21 05:59:06;;;;;;;8.23;5.35;;;-1.90;99.90;;;;;;5268315;28;20032;-73
2021/12/21 06:01:37;;;;;;;11.10;5.68;;;-1.70;99.90;;;;;;5268303;28;20082;-73
2021/12/21 06:04:08;;;;;;;13.30;5.53;;;-1.70;99.90;;;;;;5268210;28;20020;-73
2021/12/21 06:06:39;;;;;;;10.02;6.50;;;-1.50;99.90;;;;;;5268274;28;20046;-73
2021/12/21 06:09:12;;;;;;;10.88;6.30;;;-1.30;99.90;;;;;;5268090;28;20017;-73
2021/12/21 06:11:51;;;;;;;10.82;6.75;;;-1.40;99.90;;;;;;5268084;28;20036;-73
2021/12/21 06:25:37;;;;;;;10.65;7.28;;;-1.50;99.90;;;;;;5269668;28;20047;-72
2021/12/21 06:28:11;;;;;;;9.05;6.40;;;-1.40;99.90;;;;;;5271925;28;20024;-73
2021/12/21 06:30:42;;;;;;;13.57;5.43;;;-1.40;99.90;;;;;;5271754;28;20028;-72
2021/12/21 06:33:14;;;;;;;11.43;6.13;;;-1.40;99.90;;;;;;5271635;28;20110;-72
2021/12/21 06:35:45;;;;;;;11.45;6.20;;;-1.20;99.90;;;;;;5271717;28;20690;-72
2021/12/21 06:38:16;;;;;;;8.85;5.35;;;-1.20;99.90;;;;;;5271558;28;20081;-72
2021/12/21 06:40:47;;;;;;;8.65;5.40;;;-1.20;99.90;;;;;;5271337;28;20028;-72
2021/12/21 06:43:19;;;;;;;8.82;5.22;;;-1.10;99.90;;;;;;5271460;28;20032;-77
2021/12/21 06:46:43;;;;;;;9.43;5.40;;;-0.90;99.90;;;;;;5271598;28;20483;-73
2021/12/21 06:51:47;;;;;;;8.27;5.57;;;-0.70;99.90;;;;;;5271464;28;20089;-72
2021/12/21 06:54:19;;;;;;;9.48;5.30;;;-0.50;99.90;;;;;;5270124;28;20020;-71
2021/12/21 06:56:50;;;;;;;9.10;5.28;;;-0.30;99.90;;;;;;5271254;28;20028;-72
2021/12/21 06:59:21;;;;;;;10.65;4.80;;;-0.30;99.90;;;;;;5271188;28;20107;-72
2021/12/21 07:01:52;;;;;;;7.40;5.20;;;-0.20;99.90;;;;;;5271103;28;20103;-72
2021/12/21 07:04:24;;;;;;;7.95;5.13;;;-0.20;99.90;;;;;;5269744;28;20089;-72
2021/12/21 07:06:57;;;;;;;7.90;4.47;;;0.10;99.90;;;;;;5271123;28;20015;-73
2021/12/21 07:09:35;;;;;;;8.70;5.38;;;0.20;99.90;;;;;;5270849;28;20051;-72
2021/12/21 07:20:20;;;;;;;12.95;5.45;;;-0.20;99.90;;;;;;5270828;28;20035;-73
2021/12/21 07:22:50;;;;;;;10.57;5.25;;;-0.10;99.90;;;;;;5270572;28;20046;-73
2021/12/21 07:25:25;;;;;;;15.25;5.60;;;-0.10;99.90;;;;;;5270667;28;20016;-72
2021/12/21 07:27:56;;;;;;;15.77;5.63;;;0.10;99.90;;;;;;5270639;28;20047;-73
2021/12/21 07:30:27;;;;;;;9.55;5.68;;;0.00;99.90;;;;;;5270639;28;20114;-73
2021/12/21 07:32:58;;;;;;;9.75;5.90;;;0.10;99.90;;;;;;5270514;28;20044;-72
2021/12/21 07:35:28;;;;;;;8.55;5.75;;;0.20;99.90;;;;;;5270324;28;20067;-73
2021/12/21 07:38:00;;;;;;;10.88;6.35;;;0.30;99.90;;;;;;5270476;28;20030;-73
2021/12/21 07:40:31;;;;;;;7.85;5.63;;;0.30;99.90;;;;;;5270120;28;20036;-73
2021/12/21 07:43:02;;;;;;;11.27;6.40;;;0.40;99.90;;;;;;5270169;28;20040;-73
2021/12/21 07:45:33;;;;;;;8.57;5.50;;;1.00;99.90;;;;;;5270341;28;20028;-73
2021/12/21 07:48:04;;;;;;;10.00;5.60;;;1.20;99.90;;;;;;5270267;28;20020;-73
2021/12/21 07:50:36;;;;;;;11.13;5.10;;;1.40;99.90;;;;;;5270059;28;20103;-73
2021/12/21 07:53:07;;;;;;;7.53;4.97;;;1.90;99.90;;;;;;5270092;28;20058;-73
2021/12/21 07:55:38;;;;;;;11.68;5.57;;;1.90;99.90;;;;;;5270042;28;20095;-72
2021/12/21 07:58:09;;;;;;;12.13;5.13;;;2.10;99.90;;;;;;5269863;28;20095;-72
2021/12/21 08:00:41;;;;;;;10.25;5.15;;;2.10;99.90;;;;;;5269883;28;20635;-72
2021/12/21 08:03:15;;;;;;;9.48;4.90;;;2.50;99.90;;;;;;5269790;28;20069;-72
2021/12/21 08:05:49;;;;;;;6.95;4.75;;;2.50;99.90;;;;;;5269862;28;20073;-72
2021/12/21 08:08:23;;;;;;;8.20;4.50;;;3.00;99.90;;;;;;5269797;28;20435;-72
2021/12/21 08:11:08;;;;;;;7.93;4.47;;;2.90;99.90;;;;;;5269601;28;20020;-72
2021/12/21 08:13:41;;;;;;;7.40;4.25;;;3.30;99.90;;;;;;5269662;28;20056;-73
2021/12/21 08:16:13;;;;;;;8.45;5.07;;;3.70;99.90;;;;;;5269673;28;20032;-72
2021/12/21 08:18:44;;;;;;;8.80;4.53;;;3.40;99.90;;;;;;5269594;28;20115;-76
2021/12/21 08:21:17;;;;;;;7.28;4.78;;;3.80;99.90;;;;;;5269493;28;20073;-72
2021/12/21 08:23:48;;;;;;;9.23;4.57;;;3.40;99.90;;;;;;5269549;28;20030;-76
2021/12/21 08:26:19;;;;;;;7.65;4.68;;;3.70;99.90;;;;;;5269457;28;20069;-72
2021/12/21 08:28:50;;;;;;;7.78;4.95;;;3.70;99.90;;;;;;5269458;28;20032;-70
2021/12/21 08:31:21;;;;;;;10.93;4.68;;;4.10;99.90;;;;;;5269377;28;20020;-72
2021/12/21 08:33:52;;;;;;;10.73;5.38;;;4.30;99.90;;;;;;5269354;28;20114;-71
2021/12/21 08:36:23;;;;;;;8.43;4.93;;;4.70;99.90;;;;;;5269313;28;20528;-72
2021/12/21 08:38:55;;;;;;;8.73;4.40;;;4.40;99.90;;;;;;5269228;28;20386;-71
2021/12/21 08:41:26;;;;;;;7.80;5.60;;;4.70;99.90;;;;;;5268975;28;20114;-71
2021/12/21 08:43:57;;;;;;;7.03;4.25;;;5.20;99.90;;;;;;5269146;28;20081;-71
2021/12/21 08:46:28;;;;;;;7.60;3.78;;;5.10;99.90;;;;;;5269173;28;20016;-71
2021/12/21 08:48:59;;;;;;;5.53;3.83;;;5.00;99.90;;;;;;5268627;28;20074;-71
2021/12/21 08:51:30;;;;;;;8.52;4.60;;;4.70;99.90;;;;;;5269071;28;20033;-70
2021/12/21 08:54:01;;;;;;;5.35;3.80;;;4.90;99.90;;;;;;5269111;28;20024;-71
2021/12/21 08:56:32;;;;;;;4.30;3.33;;;5.10;99.90;;;;;;5269045;28;20073;-71
2021/12/21 08:59:02;;;;;;;5.82;4.00;;;5.10;99.90;;;;;;5269008;28;20043;-71
2021/12/21 09:01:33;;;;;;;6.53;4.22;;;4.90;99.90;;;;;;5268969;28;20036;-71
2021/12/21 09:04:04;;;;;;;5.13;3.70;;;5.30;99.90;;;;;;5268779;28;20039;-71
2021/12/21 09:06:35;;;;;;;5.43;3.25;;;5.60;99.90;;;;;;5268842;28;20538;-72
2021/12/21 09:09:06;;;;;;;6.35;3.58;;;5.60;99.90;;;;;;5268860;28;20054;-72
2021/12/21 09:11:38;;;;;;;5.85;3.90;;;5.40;99.90;;;;;;5268706;28;20562;-72
2021/12/21 09:14:09;;;;;;;5.32;3.42;;;5.70;99.90;;;;;;5268672;28;20047;-72
2021/12/21 09:16:40;;;;;;;7.90;4.50;;;5.40;99.90;;;;;;5268802;28;20547;-73
2021/12/21 09:19:11;;;;;;;9.70;5.32;;;5.70;99.90;;;;;;5267402;28;20107;-71
2021/12/21 09:21:42;;;;;;;6.05;4.03;;;5.80;99.90;;;;;;5268751;28;20044;-71
2021/12/21 09:24:13;;;;;;;8.55;4.38;;;5.60;99.90;;;;;;5268564;28;20052;-71
2021/12/21 09:26:44;;;;;;;10.75;4.45;;;5.60;99.90;;;;;;5268672;28;20063;-72
2021/12/21 09:29:15;;;;;;;5.07;3.53;;;6.00;99.90;;;;;;5268574;28;20024;-72
2021/12/21 09:31:46;;;;;;;6.03;3.10;;;6.20;98.50;;;;;;5268638;28;20107;-73
2021/12/21 09:34:16;;;;;;;4.88;2.75;;;6.70;92.40;;;;;;5268623;28;20066;-72
2021/12/21 09:36:47;;;;;;;4.30;2.63;;;6.10;92.90;;;;;;5268642;28;20089;-72
2021/12/21 09:39:18;;;;;;;5.18;2.75;;;6.30;86.80;;;;;;5268399;28;20047;-73
2021/12/21 09:41:49;;;;;;;5.22;2.78;;;6.10;90.40;;;;;;5268292;28;20429;-73
2021/12/21 09:44:20;;;;;;;4.60;2.63;;;6.10;89.30;;;;;;5268347;28;20028;-72
2021/12/21 09:46:51;;;;;;;6.28;2.95;;;6.00;89.70;;;;;;5268424;28;20391;-71
2021/12/21 09:49:22;;;;;;;5.72;2.88;;;6.00;90.90;;;;;;5268442;28;20452;-72
2021/12/21 09:51:52;;;;;;;5.95;3.45;;;5.50;95.20;;;;;;5268379;28;20360;-78
2021/12/21 09:54:25;;;;;;;5.22;3.25;;;6.20;91.70;;;;;;5268469;28;20142;-72
2021/12/21 09:56:56;;;;;;;13.45;8.38;;;6.70;91.90;;;;;;5268408;28;20043;-72
2021/12/21 09:59:27;;;;;;;5.53;3.70;;;6.40;90.60;;;;;;5268488;28;20008;-71
2021/12/21 10:01:58;;;;;;;5.75;3.25;;;6.90;88.90;;;;;;5272208;28;20032;-72
2021/12/21 10:04:29;;;;;;;7.97;5.70;;;7.00;89.00;;;;;;5272214;28;20024;-73
2021/12/21 10:07:00;;;;;;;6.00;2.60;;;6.30;88.10;;;;;;5272191;28;20063;-73
2021/12/21 10:09:36;;;;;;;8.57;3.63;;;6.60;87.20;;;;;;5272001;28;20020;-72
2021/12/21 10:12:07;;;;;;;5.00;3.20;;;7.20;86.80;;;;;;5272125;28;20036;-73
2021/12/21 10:14:38;;;;;;;6.85;3.70;;;7.60;86.60;;;;;;5270656;28;20501;-72
2021/12/21 10:17:10;;;;;;;5.43;3.38;;;7.10;85.70;;;;;;5272077;28;20056;-72
2021/12/21 10:19:43;;;;;;;5.90;3.90;;;6.50;86.10;;;;;;5270816;28;20031;-71
2021/12/21 10:22:15;;;;;;;7.45;3.58;;;6.40;88.30;;;;;;5271871;28;20622;-72
2021/12/21 10:24:50;;;;;;;9.40;3.72;;;7.70;91.80;;;;;;5271803;28;20489;-72
2021/12/21 10:27:24;;;;;;;11.18;3.58;;;7.70;82.50;;;;;;5271858;28;20072;-72
2021/12/21 10:29:58;;;;;;;7.13;3.83;;;6.70;87.20;;;;;;5271863;28;20029;-72
2021/12/21 10:32:32;;;;;;;5.10;3.03;;;6.10;92.80;;;;;;5271829;28;20028;-78
2021/12/21 10:35:04;;;;;;;7.75;3.53;;;7.20;97.90;;;;;;5271722;28;20021;-72
2021/12/21 10:37:40;;;;;;;6.10;3.25;;;6.60;88.80;;;;;;5271647;28;20471;-77
2021/12/21 10:40:25;;;;;;;7.32;3.40;;;7.70;92.00;;;;;;5271359;28;20032;-78
2021/12/21 10:43:05;;;;;;;11.30;4.22;;;7.40;84.50;;;;;;5270069;28;20132;-73
2021/12/21 10:45:38;;;;;;;5.47;3.30;;;6.80;89.40;;;;;;5271543;28;20030;-73
2021/12/21 10:48:15;;;;;;;6.93;3.58;;;6.60;90.00;;;;;;5270270;28;20277;-74
2021/12/21 10:50:48;;;;;;;6.78;2.83;;;6.80;89.00;;;;;;5271445;28;20028;-74
2021/12/21 10:53:26;;;;;;;8.35;5.07;;;6.60;91.70;;;;;;5271385;28;20348;-73
2021/12/21 10:56:09;;;;;;;7.15;3.45;;;6.40;91.70;;;;;;5271251;28;20055;-78
2021/12/21 10:58:42;;;;;;;6.10;3.33;;;6.30;94.00;;;;;;5271146;28;20024;-74
2021/12/21 11:01:20;;;;;;;6.00;3.92;;;6.30;93.40;;;;;;5271251;28;20027;-78
2021/12/21 11:03:54;;;;;;;6.57;3.05;;;5.80;96.80;;;;;;5271136;28;20040;-73
2021/12/21 11:06:35;;;;;;;6.00;2.97;;;6.00;95.50;;;;;;5271128;28;20027;-73
2021/12/21 11:09:09;;;;;;;6.07;3.58;;;5.90;99.30;;;;;;5269711;28;20486;-75
2021/12/21 11:11:48;;;;;;;5.85;3.25;;;6.20;95.70;;;;;;5270393;28;20027;-78
2021/12/21 11:14:19;;;;;;;5.72;3.60;;;6.30;95.60;;;;;;5270813;28;20414;-77
2021/12/21 11:16:52;;;;;;;8.27;3.45;;;6.00;95.00;;;;;;5270970;28;20028;-73
2021/12/21 11:19:23;;;;;;;4.63;2.75;;;6.20;96.40;;;;;;5270771;28;20024;-78
2021/12/21 11:21:56;;;;;;;7.20;2.92;;;6.30;99.90;;;;;;5270725;28;20495;-78
2021/12/21 11:24:29;;;;;;;5.72;3.10;;;6.20;94.20;;;;;;5270682;28;20019;-78
2021/12/21 11:27:03;;;;;;;4.20;2.58;;;5.90;94.40;;;;;;5270677;28;20043;-73
2021/12/21 11:29:35;;;;;;;5.53;2.72;;;5.90;96.20;;;;;;5270524;28;20081;-75
2021/12/21 11:32:07;;;;;;;5.03;2.72;;;6.10;95.10;;;;;;5270614;28;20542;-74
2021/12/21 11:34:58;;;;;;;4.65;2.42;;;5.90;95.50;;;;;;5270506;28;20092;-76
2021/12/21 11:37:31;;;;;;;12.70;2.65;;;5.90;96.80;;;;;;5270495;28;20059;-76
2021/12/21 11:40:03;;;;;;;6.25;2.80;;;6.00;97.50;;;;;;5270227;28;20035;-78
2021/12/21 11:42:52;;;;;;;6.30;2.60;;;6.00;97.00;;;;;;5270158;28;20472;-78
2021/12/21 11:45:27;;;;;;;7.00;3.80;;;6.30;99.20;;;;;;5270336;28;20456;-77
2021/12/21 11:48:10;;;;;;;6.43;2.90;;;6.10;93.80;;;;;;5270314;28;20024;-73
2021/12/21 11:50:47;;;;;;;3.03;2.40;;;6.10;96.00;;;;;;5270242;28;20115;-73
2021/12/21 11:53:19;;;;;;;4.10;2.40;;;6.20;91.60;;;;;;5270094;28;20020;-73
2021/12/21 11:55:51;;;;;;;46.72;23.08;;;6.50;90.70;;;;;;5270028;28;20027;-73
2021/12/21 11:58:26;;;;;;;6.10;2.78;;;6.60;94.40;;;;;;5269978;28;20491;-73
2021/12/21 12:01:04;;;;;;;5.25;2.88;;;6.60;93.40;;;;;;5270095;28;20026;-73
2021/12/21 12:03:38;;;;;;;4.28;2.50;;;6.40;94.40;;;;;;5269821;28;20042;-71
2021/12/21 12:06:15;;;;;;;8.55;3.92;;;6.50;94.60;;;;;;5269800;28;20051;-71
2021/12/21 12:08:57;;;;;;;3.95;2.55;;;5.90;91.90;;;;;;5269709;28;20107;-72
2021/12/21 12:11:35;;;;;;;5.82;2.60;;;6.50;94.00;;;;;;5269821;28;20487;-71
2021/12/21 12:14:13;;;;;;;3.55;2.15;;;6.30;94.90;;;;;;5269509;28;20075;-72
2021/12/21 12:16:55;;;;;;;32.85;14.23;;;6.10;91.70;;;;;;5269868;28;20048;-72
2021/12/21 12:19:34;;;;;;;6.78;3.53;;;5.80;91.80;;;;;;5269651;28;20101;-72
2021/12/21 12:22:07;;;;;;;8.70;4.05;;;6.20;94.40;;;;;;5269000;28;20035;-73
2021/12/21 12:24:42;;;;;;;12.88;5.35;;;6.30;91.40;;;;;;5269233;28;20024;-74
2021/12/21 12:27:16;;;;;;;4.13;2.08;;;6.10;91.10;;;;;;5269475;28;20414;-72
2021/12/21 12:30:08;;;;;;;6.80;3.90;;;6.10;87.90;;;;;;5269502;28;20112;-73
2021/12/21 12:32:42;;;;;;;2.47;1.48;;;6.70;81.40;;;;;;5269488;28;20036;-73
2021/12/21 12:35:19;;;;;;;6.28;3.10;;;7.70;78.30;;;;;;5269414;28;20491;-74
2021/12/21 12:37:54;;;;;;;5.40;2.45;;;7.50;77.40;;;;;;5269511;28;20062;-73
2021/12/21 12:40:45;;;;;;;3.17;1.67;;;7.50;76.80;;;;;;5269085;28;20012;-76
2021/12/21 12:43:22;;;;;;;4.25;1.58;;;7.80;73.80;;;;;;5269030;28;20043;-73
2021/12/21 12:46:02;;;;;;;3.00;1.25;;;8.10;74.30;;;;;;5269249;28;20471;-73
2021/12/21 12:48:41;;;;;;;4.47;1.25;;;8.70;72.90;;;;;;5269114;28;20032;-74
2021/12/21 12:51:38;;;;;;;1.77;1.10;;;8.60;71.30;;;;;;5269232;28;20405;-73
2021/12/21 12:54:14;;;;;;;1.90;1.08;;;8.30;71.00;;;;;;5269138;28;20463;-73
2021/12/21 12:56:45;;;;;;;4.18;3.10;;;8.40;70.50;;;;;;5268941;28;20032;-74
2021/12/21 12:59:16;;;;;;;1.83;0.73;;;7.60;70.60;;;;;;5268995;28;20098;-73
2021/12/21 13:01:49;;;;;;;7.30;5.32;;;7.80;71.60;;;;;;5268887;28;20020;-73
2021/12/21 13:04:19;;;;;;;4.90;1.58;;;7.70;70.50;;;;;;5268897;28;20421;-73
2021/12/21 13:06:52;;;;;;;2.42;1.00;;;8.00;69.80;;;;;;5268861;28;20107;-73
2021/12/21 13:09:23;;;;;;;3.20;2.53;;;8.00;69.60;;;;;;5268725;28;20026;-72
2021/12/21 13:11:54;;;;;;;3.17;1.33;;;7.50;70.00;;;;;;5268913;28;20024;-77
2021/12/21 13:14:24;;;;;;;4.40;2.50;;;7.60;70.10;;;;;;5268644;28;20055;-73
2021/12/21 13:16:57;;;;;;;2.10;1.20;;;8.30;70.00;;;;;;5268926;28;20099;-78
2021/12/21 13:19:30;;;;;;;3.13;1.25;;;8.50;69.20;;;;;;5268696;28;20029;-78
2021/12/21 13:22:03;;;;;;;2.70;1.25;;;8.00;74.30;;;;;;5268710;28;20119;-73
2021/12/21 13:24:36;;;;;;;2.58;1.15;;;7.40;84.20;;;;;;5268585;28;20115;-75
2021/12/21 13:27:12;;;;;;;2.33;1.10;;;7.00;89.00;;;;;;5268693;28;20023;-73
2021/12/21 13:29:43;;;;;;;2.35;1.30;;;6.20;99.90;;;;;;5268634;28;20027;-73
2021/12/21 13:32:17;;;;;;;2.80;1.40;;;6.40;99.90;;;;;;5268693;28;20020;-77
2021/12/21 13:34:53;;;;;;;2.92;1.88;;;6.60;99.90;;;;;;5271108;28;20035;-73
2021/12/21 13:37:24;;;;;;;3.75;1.98;;;6.50;99.90;;;;;;5272999;28;20027;-73
2021/12/21 13:40:00;;;;;;;2.88;1.73;;;6.30;99.90;;;;;;5272573;28;20028;-73
2021/12/21 13:42:32;;;;;;;4.03;2.75;;;6.30;99.90;;;;;;5272765;28;20036;-73
2021/12/21 13:45:06;;;;;;;2.15;1.23;;;6.30;99.90;;;;;;5272954;28;20016;-73
2021/12/21 13:47:43;;;;;;;2.55;1.38;;;6.00;99.90;;;;;;5272670;28;20097;-73
2021/12/21 13:50:23;;;;;;;1.85;0.98;;;6.20;99.90;;;;;;5272630;28;20016;-78
2021/12/21 13:52:58;;;;;;;1.40;1.05;;;6.10;99.90;;;;;;5272657;28;20013;-74
2021/12/21 13:55:39;;;;;;;3.20;1.75;;;6.30;99.90;;;;;;5271439;28;20478;-72
2021/12/21 13:58:13;;;;;;;4.22;1.30;;;6.40;99.90;;;;;;5272481;28;20105;-74
2021/12/21 14:00:54;;;;;;;2.95;1.30;;;6.20;99.90;;;;;;5272445;28;20359;-72
2021/12/21 14:03:33;;;;;;;5.43;1.60;;;6.00;99.90;;;;;;5272275;28;20036;-73
2021/12/21 14:06:13;;;;;;;2.57;1.53;;;6.40;99.90;;;;;;5272473;28;20024;-73
2021/12/21 14:08:45;;;;;;;8.83;4.00;;;6.30;99.90;;;;;;5272248;28;20024;-71
2021/12/21 14:11:18;;;;;;;6.10;3.10;;;6.50;99.90;;;;;;5272212;28;20491;-74
2021/12/21 14:13:50;;;;;;;3.47;2.08;;;5.90;99.90;;;;;;5271850;28;20052;-73
2021/12/21 14:16:24;;;;;;;3.83;1.60;;;5.80;99.90;;;;;;5272143;28;20024;-73
2021/12/21 14:19:02;;;;;;;2.20;1.10;;;5.90;99.90;;;;;;5272089;28;20023;-77
2021/12/21 14:21:38;;;;;;;2.13;1.10;;;5.70;99.90;;;;;;5272115;28;20024;-72